メインページ
METAR-TAF:

METAR-TAF

空港 :

ピーターボロ, オンタリオ州, カナダ

緯度: 44-14N, 経度: 078-22W, 海抜: 191m

現時点の気象観測

当レポートは23分前の06:00(UTC)に作成
北/北西の風 3kt
気温 7°C
湿度 93%
気圧 1016 hPa
視程: 14.5km
高度2600ftの曇り

METAR: CYPQ 040600Z AUTO 34003KT 9SM OVC026 07/06 A3001 RMK SLP169

時間: 02:23 (06:23 UTC)

予報

当レポートは6時間5分前の00:18(UTC)に作成
予報は04日の 00時(UTC)から 04日の 02時(UTC)まで有効
の風 6kt
視程: 8.0km
高度700ftの曇り
小霧雨, 靄
04日の 00時(UTC)から 04日の 02時(UTC)まで一時的に
視程: 10km
高度700ftの雲は散在している
高度3000ftの曇り
小雨

TAF: CYPQ 040018Z 0400/0402 35006KT 5SM -DZ BR OVC007 TEMPO 0400/0402 P6SM -RA SCT007 OVC030 RMK FCST BASED ON AUTO OBS. NXT FCST WILL BE ISSUED AT 040945Z

4,000以上の空港の気象観測と天気予報(METAR報とTAF報)

利用可能な観測所は地図上に黄色い丸と赤い丸で示す。

丸の上にカーソルを重ねると観測所名を参照できる。

次にクリックすると気象観測と天気予報を参照できる。

マップの切り替え:黒色「×」印の緑ボタンをクリックして拡大、「-」印の緑ボタンをクリックして縮小、緑色の三角印をクリックして隣りの地図に切り替え


METAR-TAF: